sensor_id;sensor_type;location;lat;lon;timestamp;temperature;humidity
30467;DHT22;17258;52.560;13.046;2024-01-06T00:06:21;7.30;67.50
30467;DHT22;17258;52.560;13.046;2024-01-06T00:16:22;7.40;67.50
30467;DHT22;17258;52.560;13.046;2024-01-06T00:26:23;7.40;67.50
30467;DHT22;17258;52.560;13.046;2024-01-06T00:36:24;7.40;67.40
30467;DHT22;17258;52.560;13.046;2024-01-06T00:46:25;7.40;67.40
30467;DHT22;17258;52.560;13.046;2024-01-06T00:56:26;7.40;67.40
30467;DHT22;17258;52.560;13.046;2024-01-06T01:06:27;7.40;67.40
30467;DHT22;17258;52.560;13.046;2024-01-06T01:16:28;7.40;67.40
30467;DHT22;17258;52.560;13.046;2024-01-06T01:26:29;7.40;67.40
30467;DHT22;17258;52.560;13.046;2024-01-06T01:36:30;7.30;67.30
30467;DHT22;17258;52.560;13.046;2024-01-06T01:46:30;7.30;67.30
30467;DHT22;17258;52.560;13.046;2024-01-06T01:56:31;7.30;67.30
30467;DHT22;17258;52.560;13.046;2024-01-06T02:06:35;7.20;67.20
30467;DHT22;17258;52.560;13.046;2024-01-06T02:16:36;7.20;67.30
30467;DHT22;17258;52.560;13.046;2024-01-06T02:26:36;7.20;67.40
30467;DHT22;17258;52.560;13.046;2024-01-06T02:36:37;7.10;67.20
30467;DHT22;17258;52.560;13.046;2024-01-06T02:46:38;7.10;67.20
30467;DHT22;17258;52.560;13.046;2024-01-06T02:56:39;7.10;67.40
30467;DHT22;17258;52.560;13.046;2024-01-06T03:06:39;7.10;67.30
30467;DHT22;17258;52.560;13.046;2024-01-06T03:16:40;7.00;67.20
30467;DHT22;17258;52.560;13.046;2024-01-06T03:26:41;7.00;67.30
30467;DHT22;17258;52.560;13.046;2024-01-06T03:36:42;7.00;67.40
30467;DHT22;17258;52.560;13.046;2024-01-06T03:46:43;7.00;68.20
30467;DHT22;17258;52.560;13.046;2024-01-06T03:56:43;7.00;67.50
30467;DHT22;17258;52.560;13.046;2024-01-06T04:06:44;7.00;67.50
30467;DHT22;17258;52.560;13.046;2024-01-06T04:16:44;7.00;67.40
30467;DHT22;17258;52.560;13.046;2024-01-06T04:26:45;7.00;67.40
30467;DHT22;17258;52.560;13.046;2024-01-06T04:36:46;7.00;67.40
30467;DHT22;17258;52.560;13.046;2024-01-06T04:46:47;6.90;67.40
30467;DHT22;17258;52.560;13.046;2024-01-06T04:56:47;6.90;67.30
30467;DHT22;17258;52.560;13.046;2024-01-06T05:06:48;6.90;68.20
30467;DHT22;17258;52.560;13.046;2024-01-06T05:16:50;6.90;67.50
30467;DHT22;17258;52.560;13.046;2024-01-06T05:26:51;6.80;67.40
30467;DHT22;17258;52.560;13.046;2024-01-06T05:36:52;6.80;67.50
30467;DHT22;17258;52.560;13.046;2024-01-06T05:46:54;6.80;67.60
30467;DHT22;17258;52.560;13.046;2024-01-06T05:56:55;6.80;67.60
30467;DHT22;17258;52.560;13.046;2024-01-06T06:06:57;6.80;67.50
30467;DHT22;17258;52.560;13.046;2024-01-06T06:16:57;6.90;67.50
30467;DHT22;17258;52.560;13.046;2024-01-06T06:26:58;6.80;67.50
30467;DHT22;17258;52.560;13.046;2024-01-06T06:36:58;6.80;67.50
30467;DHT22;17258;52.560;13.046;2024-01-06T06:47:00;6.80;67.50
30467;DHT22;17258;52.560;13.046;2024-01-06T06:57:01;6.80;67.50
30467;DHT22;17258;52.560;13.046;2024-01-06T07:07:02;6.80;67.40
30467;DHT22;17258;52.560;13.046;2024-01-06T07:17:03;6.70;67.40
30467;DHT22;17258;52.560;13.046;2024-01-06T07:27:04;6.70;67.40
30467;DHT22;17258;52.560;13.046;2024-01-06T07:37:05;6.60;67.40
30467;DHT22;17258;52.560;13.046;2024-01-06T07:47:06;6.50;67.40
30467;DHT22;17258;52.560;13.046;2024-01-06T07:57:07;6.50;67.40
30467;DHT22;17258;52.560;13.046;2024-01-06T08:07:07;6.40;67.40
30467;DHT22;17258;52.560;13.046;2024-01-06T08:17:08;6.30;67.50
30467;DHT22;17258;52.560;13.046;2024-01-06T08:27:09;6.30;67.70
30467;DHT22;17258;52.560;13.046;2024-01-06T08:37:10;6.30;67.80
30467;DHT22;17258;52.560;13.046;2024-01-06T08:47:11;6.30;67.70
30467;DHT22;17258;52.560;13.046;2024-01-06T08:57:12;6.30;67.60
30467;DHT22;17258;52.560;13.046;2024-01-06T09:07:13;6.30;67.60
30467;DHT22;17258;52.560;13.046;2024-01-06T09:17:13;6.30;67.70
30467;DHT22;17258;52.560;13.046;2024-01-06T09:27:14;6.20;67.50
30467;DHT22;17258;52.560;13.046;2024-01-06T09:37:16;6.20;67.60
30467;DHT22;17258;52.560;13.046;2024-01-06T09:47:18;6.20;67.50
30467;DHT22;17258;52.560;13.046;2024-01-06T09:57:20;6.10;67.50
30467;DHT22;17258;52.560;13.046;2024-01-06T10:07:21;6.10;67.50
30467;DHT22;17258;52.560;13.046;2024-01-06T10:17:22;6.10;67.60
30467;DHT22;17258;52.560;13.046;2024-01-06T10:27:22;6.10;67.60
30467;DHT22;17258;52.560;13.046;2024-01-06T10:37:24;6.10;67.60
30467;DHT22;17258;52.560;13.046;2024-01-06T10:47:25;6.10;67.60
30467;DHT22;17258;52.560;13.046;2024-01-06T10:57:27;6.10;67.50
30467;DHT22;17258;52.560;13.046;2024-01-06T11:07:32;6.10;67.60
30467;DHT22;17258;52.560;13.046;2024-01-06T11:17:57;6.10;67.60
30467;DHT22;17258;52.560;13.046;2024-01-06T11:28:07;6.00;67.50
30467;DHT22;17258;52.560;13.046;2024-01-06T11:38:10;6.00;67.40
30467;DHT22;17258;52.560;13.046;2024-01-06T11:48:12;6.00;67.40
30467;DHT22;17258;52.560;13.046;2024-01-06T11:58:15;6.00;67.50
30467;DHT22;17258;52.560;13.046;2024-01-06T12:08:19;6.00;67.50
30467;DHT22;17258;52.560;13.046;2024-01-06T12:18:20;6.00;67.30
30467;DHT22;17258;52.560;13.046;2024-01-06T12:28:20;6.00;67.30
30467;DHT22;17258;52.560;13.046;2024-01-06T12:38:21;6.00;67.40
30467;DHT22;17258;52.560;13.046;2024-01-06T12:48:22;5.90;67.30
30467;DHT22;17258;52.560;13.046;2024-01-06T12:58:22;5.90;67.30
30467;DHT22;17258;52.560;13.046;2024-01-06T13:08:24;5.90;67.30
30467;DHT22;17258;52.560;13.046;2024-01-06T13:18:25;5.90;67.40
30467;DHT22;17258;52.560;13.046;2024-01-06T13:28:25;5.80;67.30
30467;DHT22;17258;52.560;13.046;2024-01-06T13:38:26;5.90;67.50
30467;DHT22;17258;52.560;13.046;2024-01-06T13:48:27;5.90;67.30
30467;DHT22;17258;52.560;13.046;2024-01-06T13:58:29;5.90;67.20
30467;DHT22;17258;52.560;13.046;2024-01-06T14:08:30;5.90;67.20
30467;DHT22;17258;52.560;13.046;2024-01-06T14:18:30;5.80;67.10
30467;DHT22;17258;52.560;13.046;2024-01-06T14:28:31;5.80;67.10
30467;DHT22;17258;52.560;13.046;2024-01-06T14:38:32;5.70;67.10
30467;DHT22;17258;52.560;13.046;2024-01-06T14:48:33;5.70;67.10
30467;DHT22;17258;52.560;13.046;2024-01-06T14:58:33;5.70;67.10
30467;DHT22;17258;52.560;13.046;2024-01-06T15:08:34;5.60;67.00
30467;DHT22;17258;52.560;13.046;2024-01-06T15:18:35;5.60;67.10
30467;DHT22;17258;52.560;13.046;2024-01-06T15:28:36;5.60;67.10
30467;DHT22;17258;52.560;13.046;2024-01-06T15:38:36;5.50;67.10
30467;DHT22;17258;52.560;13.046;2024-01-06T15:48:37;5.50;67.20
30467;DHT22;17258;52.560;13.046;2024-01-06T15:58:38;5.50;67.20
30467;DHT22;17258;52.560;13.046;2024-01-06T16:08:38;5.50;67.10
30467;DHT22;17258;52.560;13.046;2024-01-06T16:18:40;5.50;67.10
30467;DHT22;17258;52.560;13.046;2024-01-06T16:28:41;5.40;67.00
30467;DHT22;17258;52.560;13.046;2024-01-06T16:38:41;5.40;66.90
30467;DHT22;17258;52.560;13.046;2024-01-06T16:48:42;5.40;66.90
30467;DHT22;17258;52.560;13.046;2024-01-06T16:58:43;5.30;66.90
30467;DHT22;17258;52.560;13.046;2024-01-06T17:08:43;5.30;66.90
30467;DHT22;17258;52.560;13.046;2024-01-06T17:18:44;5.30;66.90
30467;DHT22;17258;52.560;13.046;2024-01-06T17:28:45;5.30;66.90
30467;DHT22;17258;52.560;13.046;2024-01-06T17:38:46;5.20;66.80
30467;DHT22;17258;52.560;13.046;2024-01-06T17:48:47;5.20;66.80
30467;DHT22;17258;52.560;13.046;2024-01-06T17:58:48;5.10;66.90
30467;DHT22;17258;52.560;13.046;2024-01-06T18:08:49;5.10;66.80
30467;DHT22;17258;52.560;13.046;2024-01-06T18:18:49;5.10;66.80
30467;DHT22;17258;52.560;13.046;2024-01-06T18:28:50;5.10;66.70
30467;DHT22;17258;52.560;13.046;2024-01-06T18:38:51;5.10;66.70
30467;DHT22;17258;52.560;13.046;2024-01-06T18:48:51;5.00;66.60
30467;DHT22;17258;52.560;13.046;2024-01-06T18:58:52;5.00;66.90
30467;DHT22;17258;52.560;13.046;2024-01-06T19:08:53;5.00;67.00
30467;DHT22;17258;52.560;13.046;2024-01-06T19:18:54;5.00;66.90
30467;DHT22;17258;52.560;13.046;2024-01-06T19:28:54;5.00;66.90
30467;DHT22;17258;52.560;13.046;2024-01-06T19:38:55;5.00;66.80
30467;DHT22;17258;52.560;13.046;2024-01-06T19:48:56;4.90;66.70
30467;DHT22;17258;52.560;13.046;2024-01-06T19:58:56;4.90;66.80
30467;DHT22;17258;52.560;13.046;2024-01-06T20:08:57;4.90;66.80
30467;DHT22;17258;52.560;13.046;2024-01-06T20:18:58;4.90;66.70
30467;DHT22;17258;52.560;13.046;2024-01-06T20:28:58;4.90;66.70
30467;DHT22;17258;52.560;13.046;2024-01-06T20:38:59;4.90;66.60
30467;DHT22;17258;52.560;13.046;2024-01-06T20:49:00;4.90;66.60
30467;DHT22;17258;52.560;13.046;2024-01-06T20:59:00;4.90;66.40
30467;DHT22;17258;52.560;13.046;2024-01-06T21:09:01;4.90;66.30
30467;DHT22;17258;52.560;13.046;2024-01-06T21:19:02;4.80;66.40
30467;DHT22;17258;52.560;13.046;2024-01-06T21:29:03;4.80;66.40
30467;DHT22;17258;52.560;13.046;2024-01-06T21:39:05;4.70;66.30
30467;DHT22;17258;52.560;13.046;2024-01-06T21:49:06;4.70;66.40
30467;DHT22;17258;52.560;13.046;2024-01-06T21:59:06;4.60;66.20
30467;DHT22;17258;52.560;13.046;2024-01-06T22:09:07;4.60;66.40
30467;DHT22;17258;52.560;13.046;2024-01-06T22:19:08;4.60;66.30
30467;DHT22;17258;52.560;13.046;2024-01-06T22:29:10;4.70;66.30
30467;DHT22;17258;52.560;13.046;2024-01-06T22:39:11;4.70;66.20
30467;DHT22;17258;52.560;13.046;2024-01-06T22:49:11;4.70;66.10
30467;DHT22;17258;52.560;13.046;2024-01-06T22:59:12;4.70;66.00
30467;DHT22;17258;52.560;13.046;2024-01-06T23:09:13;4.70;65.80
30467;DHT22;17258;52.560;13.046;2024-01-06T23:19:14;4.60;65.80
30467;DHT22;17258;52.560;13.046;2024-01-06T23:29:14;4.60;65.70
30467;DHT22;17258;52.560;13.046;2024-01-06T23:39:15;4.60;65.70
30467;DHT22;17258;52.560;13.046;2024-01-06T23:49:16;4.60;65.70
30467;DHT22;17258;52.560;13.046;2024-01-06T23:59:18;4.50;65.40
